Sunflower Pearl — JD2496 — position and weather

sailwx.info

Track history (hours):
 
Tides and Currents Weather Stations Pressure Air Temp Water Temp Dewpoint Dewpoint Depression Visibility Wind Speed Wind Dir Waves Ship Positions

Sunflower Pearl

Last reported at 2017-Dec-15 10:20 UTC. Time now 2018-Feb-21 17:30 UTC.
Position N 33°57' E 135°04'.
Warning: this ship's position is months out of date.

Length 166 m; draft 6 m.

Type: Passenger vessel. MMSI: 431000406.

Date/timePositionNaut miles runAvg speedWind from/ knotsBaromVisibWave heightAir tempDewpointWater temp
2017-Dec-15 10:20N 33°57' E 135°04'3 9.7
2017-Dec-15 10:01N 33°59' E 135°01'510.3
2017-Dec-15 09:30N 34°04' E 134°60'510.5
2017-Dec-15 09:01N 34°09' E 134°59'510.3
2017-Dec-15 08:30N 34°14' E 134°59'5 9.9
2017-Dec-15 08:00N 34°19' E 134°59'5 9.7
2017-Dec-15 07:30N 34°23' E 135°02'510.5
2017-Dec-15 07:00N 34°27' E 135°06'510.6
2017-Dec-15 06:31N 34°30' E 135°11'510.1
2017-Dec-15 06:01N 34°34' E 135°15'510.2
2017-Dec-15 05:30N 34°39' E 135°18'3 6.0
2017-Dec-15 05:00N 34°42' E 135°17'0 0.0
2017-Dec-15 04:30N 34°42' E 135°17'0 0.0
2017-Dec-15 04:00N 34°42' E 135°17'0 0.0
2017-Dec-15 02:30N 34°42' E 135°17'0 0.0
2017-Dec-15 01:00N 34°42' E 135°17'3 5.4
2017-Dec-15 00:30N 34°39' E 135°18'12812.4
2017-Dec-14 14:09N 34°04' E 132°49'321.6
2017-Dec-14 13:59N 34°01' E 132°47'1121.7
2017-Dec-14 13:29N 33°54' E 132°37'1722.4
2017-Dec-14 12:44N 33°43' E 132°22'1622.7
2017-Dec-14 12:02N 33°34' E 132°05'022.6
2017-Dec-14 12:01N 33°34' E 132°05'1222.8
2017-Dec-14 11:28N 33°27' E 131°53'1123.1
2017-Dec-14 11:00N 33°21' E 131°42'8 0.6
2017-Dec-13 21:12N 33°15' E 131°35'314.3
2017-Dec-13 20:59N 33°18' E 131°37'1020.6
2017-Dec-13 20:30N 33°23' E 131°47'1020.8
2017-Dec-13 20:01N 33°29' E 131°57'2220.9
2017-Dec-13 18:57N 33°43' E 132°19'921.1
2017-Dec-13 18:30N 33°48' E 132°28'1121.2
2017-Dec-13 18:00N 33°55' E 132°37'1121.4
2017-Dec-13 17:30N 34°02' E 132°47'6817.0
2017-Dec-13 13:30N 34°27' E 134°03'1019.1
2017-Dec-13 12:59N 34°24' E 134°15'1020.3
2017-Dec-13 12:30N 34°27' E 134°26'1020.8
2017-Dec-13 12:00N 34°30' E 134°38'1020.5
2017-Dec-13 11:31N 34°34' E 134°49'1019.9
2017-Dec-13 11:00N 34°37' E 135°01'1019.9
2017-Dec-13 10:30N 34°37' E 135°13'612.3
2017-Dec-13 10:00N 34°42' E 135°17'0 0.0
2017-Dec-13 09:29N 34°42' E 135°17'0 0.0
2017-Dec-13 08:59N 34°42' E 135°17'0 0.0
2017-Dec-13 08:29N 34°42' E 135°17'0 0.0
2017-Dec-13 07:59N 34°42' E 135°17'0 0.0
2017-Dec-13 07:29N 34°42' E 135°17'0 0.0
2017-Dec-13 06:59N 34°42' E 135°17'0 0.0
2017-Dec-13 06:29N 34°42' E 135°17'0 0.0
2017-Dec-13 05:59N 34°42' E 135°17'0 0.0
2017-Dec-13 05:29N 34°42' E 135°17'0 0.0
2017-Dec-13 04:56N 34°42' E 135°17'0 0.0
2017-Dec-13 04:29N 34°42' E 135°17'0 0.0
2017-Dec-13 03:59N 34°42' E 135°17'0 0.0
2017-Dec-13 03:29N 34°42' E 135°17'0 0.0
2017-Dec-13 02:59N 34°42' E 135°17'0 0.0
2017-Dec-13 02:29N 34°42' E 135°17'0 0.0
2017-Dec-13 01:59N 34°42' E 135°17'0 0.0
2017-Dec-13 01:29N 34°42' E 135°17'0 0.0
2017-Dec-13 00:59N 34°42' E 135°17'0 0.0
2017-Dec-13 00:29N 34°42' E 135°17'0 0.0
2017-Dec-12 23:59N 34°42' E 135°17'0 0.0
2017-Dec-12 23:29N 34°42' E 135°17'0 0.0
2017-Dec-12 22:59N 34°42' E 135°17'0 0.0
2017-Dec-12 22:29N 34°42' E 135°17'0 0.0
2017-Dec-12 21:59N 34°42' E 135°17'0 0.5
2017-Dec-12 21:30N 34°42' E 135°17'714.7
2017-Dec-12 21:00N 34°36' E 135°13'1021.0
2017-Dec-12 20:31N 34°37' E 135°00'1121.6
2017-Dec-12 20:00N 34°33' E 134°48'1122.8
2017-Dec-12 19:30N 34°27' E 134°36'1223.0
2017-Dec-12 19:00N 34°24' E 134°23'1121.5
2017-Dec-12 18:28N 34°25' E 134°09'7316.1
2017-Dec-12 13:56N 34°01' E 132°46'1021.9
2017-Dec-12 13:30N 33°54' E 132°38'1222.5
2017-Dec-12 12:59N 33°47' E 132°27'2222.7
2017-Dec-12 12:01N 33°34' E 132°06'622.6
2017-Dec-12 11:46N 33°31' E 132°00'622.5
2017-Dec-12 11:29N 33°27' E 131°54'1123.0
2017-Dec-12 11:01N 33°21' E 131°43'917.7
2017-Dec-12 10:31N 33°15' E 131°35'0 0.0
2017-Dec-11 21:09N 33°15' E 131°35'317.0
2017-Dec-11 20:58N 33°18' E 131°37'1021.9
2017-Dec-11 20:30N 33°24' E 131°47'1121.8
2017-Dec-11 20:00N 33°30' E 131°58'2021.3
2017-Dec-11 19:04N 33°41' E 132°18'221.4
2017-Dec-11 18:59N 33°42' E 132°19'1121.4
2017-Dec-11 18:29N 33°49' E 132°30'1021.0
2017-Dec-11 18:00N 33°55' E 132°39'1020.5
2017-Dec-11 17:30N 34°03' E 132°47'7117.2
2017-Dec-11 13:22N 34°26' E 134°09'719.6
2017-Dec-11 13:00N 34°25' E 134°17'1020.9
2017-Dec-11 12:31N 34°27' E 134°29'1020.7
2017-Dec-11 12:00N 34°31' E 134°41'1019.5
2017-Dec-11 11:30N 34°35' E 134°52'917.0
2017-Dec-11 11:01N 34°37' E 135°02'918.8
2017-Dec-11 10:30N 34°37' E 135°13'612.3
2017-Dec-11 10:01N 34°42' E 135°17'0 0.0
2017-Dec-11 09:30N 34°42' E 135°17'0 0.0
2017-Dec-11 09:00N 34°42' E 135°17'0 0.0
2017-Dec-11 08:30N 34°42' E 135°17'0 0.0
2017-Dec-11 08:00N 34°42' E 135°17'0 0.0
2017-Dec-11 07:30N 34°42' E 135°17'0 0.0
2017-Dec-11 07:00N 34°42' E 135°17'0 0.0
2017-Dec-11 06:30N 34°42' E 135°17'0 0.0
2017-Dec-11 06:00N 34°42' E 135°17'0 0.0
2017-Dec-11 05:30N 34°42' E 135°17'0 0.0
2017-Dec-11 05:00N 34°42' E 135°17'0 0.0
2017-Dec-11 04:30N 34°42' E 135°17'1 1.1
2017-Dec-11 04:00N 34°42' E 135°18'714.3
2017-Dec-11 03:30N 34°35' E 135°17'714.9
2017-Dec-11 03:01N 34°29' E 135°11'714.9
2017-Dec-11 02:30N 34°23' E 135°05'714.9
2017-Dec-11 02:01N 34°17' E 134°60'816.3
2017-Dec-11 01:31N 34°09' E 135°00'815.0
2017-Dec-11 01:00N 34°02' E 135°02'5 9.3
2017-Dec-11 00:30N 33°57' E 135°03'  
Track history (hours):
 
Tides and Currents Weather Stations Pressure Air Temp Water Temp Dewpoint Dewpoint Depression Visibility Wind Speed Wind Dir Waves Ship Positions

Sunflower Pearl

Last reported at 2017-Dec-15 10:20 UTC. Time now 2018-Feb-21 17:30 UTC.
Position N 33°57' E 135°04'.
Warning: this ship's position is months out of date.

Length 166 m; draft 6 m.

Type: Passenger vessel. MMSI: 431000406.

Date/timePositionNaut miles runAvg speedWind from/ knotsBaromVisibWave heightAir tempDewpointWater temp
2017-Dec-15 10:20N 33°57' E 135°04'3 9.7
2017-Dec-15 10:01N 33°59' E 135°01'510.3
2017-Dec-15 09:30N 34°04' E 134°60'510.5
2017-Dec-15 09:01N 34°09' E 134°59'510.3
2017-Dec-15 08:30N 34°14' E 134°59'5 9.9
2017-Dec-15 08:00N 34°19' E 134°59'5 9.7
2017-Dec-15 07:30N 34°23' E 135°02'510.5
2017-Dec-15 07:00N 34°27' E 135°06'510.6
2017-Dec-15 06:31N 34°30' E 135°11'510.1
2017-Dec-15 06:01N 34°34' E 135°15'510.2
2017-Dec-15 05:30N 34°39' E 135°18'3 6.0
2017-Dec-15 05:00N 34°42' E 135°17'0 0.0
2017-Dec-15 04:30N 34°42' E 135°17'0 0.0
2017-Dec-15 04:00N 34°42' E 135°17'0 0.0
2017-Dec-15 02:30N 34°42' E 135°17'0 0.0
2017-Dec-15 01:00N 34°42' E 135°17'3 5.4
2017-Dec-15 00:30N 34°39' E 135°18'12812.4
2017-Dec-14 14:09N 34°04' E 132°49'321.6
2017-Dec-14 13:59N 34°01' E 132°47'1121.7
2017-Dec-14 13:29N 33°54' E 132°37'1722.4
2017-Dec-14 12:44N 33°43' E 132°22'1622.7
2017-Dec-14 12:02N 33°34' E 132°05'022.6
2017-Dec-14 12:01N 33°34' E 132°05'1222.8
2017-Dec-14 11:28N 33°27' E 131°53'1123.1
2017-Dec-14 11:00N 33°21' E 131°42'8 0.6
2017-Dec-13 21:12N 33°15' E 131°35'314.3
2017-Dec-13 20:59N 33°18' E 131°37'1020.6
2017-Dec-13 20:30N 33°23' E 131°47'1020.8
2017-Dec-13 20:01N 33°29' E 131°57'2220.9
2017-Dec-13 18:57N 33°43' E 132°19'921.1
2017-Dec-13 18:30N 33°48' E 132°28'1121.2
2017-Dec-13 18:00N 33°55' E 132°37'1121.4
2017-Dec-13 17:30N 34°02' E 132°47'6817.0
2017-Dec-13 13:30N 34°27' E 134°03'1019.1
2017-Dec-13 12:59N 34°24' E 134°15'1020.3
2017-Dec-13 12:30N 34°27' E 134°26'1020.8
2017-Dec-13 12:00N 34°30' E 134°38'1020.5
2017-Dec-13 11:31N 34°34' E 134°49'1019.9
2017-Dec-13 11:00N 34°37' E 135°01'1019.9
2017-Dec-13 10:30N 34°37' E 135°13'612.3
2017-Dec-13 10:00N 34°42' E 135°17'0 0.0
2017-Dec-13 09:29N 34°42' E 135°17'0 0.0
2017-Dec-13 08:59N 34°42' E 135°17'0 0.0
2017-Dec-13 08:29N 34°42' E 135°17'0 0.0
2017-Dec-13 07:59N 34°42' E 135°17'0 0.0
2017-Dec-13 07:29N 34°42' E 135°17'0 0.0
2017-Dec-13 06:59N 34°42' E 135°17'0 0.0
2017-Dec-13 06:29N 34°42' E 135°17'0 0.0
2017-Dec-13 05:59N 34°42' E 135°17'0 0.0
2017-Dec-13 05:29N 34°42' E 135°17'0 0.0
2017-Dec-13 04:56N 34°42' E 135°17'0 0.0
2017-Dec-13 04:29N 34°42' E 135°17'0 0.0
2017-Dec-13 03:59N 34°42' E 135°17'0 0.0
2017-Dec-13 03:29N 34°42' E 135°17'0 0.0
2017-Dec-13 02:59N 34°42' E 135°17'0 0.0
2017-Dec-13 02:29N 34°42' E 135°17'0 0.0
2017-Dec-13 01:59N 34°42' E 135°17'0 0.0
2017-Dec-13 01:29N 34°42' E 135°17'0 0.0
2017-Dec-13 00:59N 34°42' E 135°17'0 0.0
2017-Dec-13 00:29N 34°42' E 135°17'0 0.0
2017-Dec-12 23:59N 34°42' E 135°17'0 0.0
2017-Dec-12 23:29N 34°42' E 135°17'0 0.0
2017-Dec-12 22:59N 34°42' E 135°17'0 0.0
2017-Dec-12 22:29N 34°42' E 135°17'0 0.0
2017-Dec-12 21:59N 34°42' E 135°17'0 0.5
2017-Dec-12 21:30N 34°42' E 135°17'714.7
2017-Dec-12 21:00N 34°36' E 135°13'1021.0
2017-Dec-12 20:31N 34°37' E 135°00'1121.6
2017-Dec-12 20:00N 34°33' E 134°48'1122.8
2017-Dec-12 19:30N 34°27' E 134°36'1223.0
2017-Dec-12 19:00N 34°24' E 134°23'1121.5
2017-Dec-12 18:28N 34°25' E 134°09'7316.1
2017-Dec-12 13:56N 34°01' E 132°46'1021.9
2017-Dec-12 13:30N 33°54' E 132°38'1222.5
2017-Dec-12 12:59N 33°47' E 132°27'2222.7
2017-Dec-12 12:01N 33°34' E 132°06'622.6
2017-Dec-12 11:46N 33°31' E 132°00'622.5
2017-Dec-12 11:29N 33°27' E 131°54'1123.0
2017-Dec-12 11:01N 33°21' E 131°43'917.7
2017-Dec-12 10:31N 33°15' E 131°35'0 0.0
2017-Dec-11 21:09N 33°15' E 131°35'317.0
2017-Dec-11 20:58N 33°18' E 131°37'1021.9
2017-Dec-11 20:30N 33°24' E 131°47'1121.8
2017-Dec-11 20:00N 33°30' E 131°58'2021.3
2017-Dec-11 19:04N 33°41' E 132°18'221.4
2017-Dec-11 18:59N 33°42' E 132°19'1121.4
2017-Dec-11 18:29N 33°49' E 132°30'1021.0
2017-Dec-11 18:00N 33°55' E 132°39'1020.5
2017-Dec-11 17:30N 34°03' E 132°47'7117.2
2017-Dec-11 13:22N 34°26' E 134°09'719.6
2017-Dec-11 13:00N 34°25' E 134°17'1020.9
2017-Dec-11 12:31N 34°27' E 134°29'1020.7
2017-Dec-11 12:00N 34°31' E 134°41'1019.5
2017-Dec-11 11:30N 34°35' E 134°52'917.0
2017-Dec-11 11:01N 34°37' E 135°02'918.8
2017-Dec-11 10:30N 34°37' E 135°13'612.3
2017-Dec-11 10:01N 34°42' E 135°17'0 0.0
2017-Dec-11 09:30N 34°42' E 135°17'0 0.0
2017-Dec-11 09:00N 34°42' E 135°17'0 0.0
2017-Dec-11 08:30N 34°42' E 135°17'0 0.0
2017-Dec-11 08:00N 34°42' E 135°17'0 0.0
2017-Dec-11 07:30N 34°42' E 135°17'0 0.0
2017-Dec-11 07:00N 34°42' E 135°17'0 0.0
2017-Dec-11 06:30N 34°42' E 135°17'0 0.0
2017-Dec-11 06:00N 34°42' E 135°17'0 0.0
2017-Dec-11 05:30N 34°42' E 135°17'0 0.0
2017-Dec-11 05:00N 34°42' E 135°17'0 0.0
2017-Dec-11 04:30N 34°42' E 135°17'1 1.1
2017-Dec-11 04:00N 34°42' E 135°18'714.3
2017-Dec-11 03:30N 34°35' E 135°17'714.9
2017-Dec-11 03:01N 34°29' E 135°11'714.9
2017-Dec-11 02:30N 34°23' E 135°05'714.9
2017-Dec-11 02:01N 34°17' E 134°60'816.3
2017-Dec-11 01:31N 34°09' E 135°00'815.0
2017-Dec-11 01:00N 34°02' E 135°02'5 9.3
2017-Dec-11 00:30N 33°57' E 135°03'  

Dump ship's entire track history